Time;durP1;ratioP1;P1;durP2;ratioP2;P2;SDS_P1;SDS_P2;PMS_P1;PMS_P2;Temp;Humidity;BMP_temperature;BMP_pressure;BME280_temperature;BME280_humidity;BME280_pressure;Samples;Min_cycle;Max_cycle;Signal;HPM_P1;HPM_P2
2021/06/16 00:00:55;;;;;;;4.45;3.83;;;16.00;99.90;;;;;;2097762;28;20832;-69
2021/06/16 00:01:56;;;;;;;5.93;3.53;;;16.00;99.90;;;;;;2097898;28;20300;-69
2021/06/16 00:02:57;;;;;;;5.33;3.63;;;16.00;99.90;;;;;;2097470;28;20665;-68
2021/06/16 00:03:58;;;;;;;3.87;3.50;;;16.00;99.90;;;;;;2097716;28;20178;-69
2021/06/16 00:04:59;;;;;;;4.82;3.92;;;16.00;99.90;;;;;;2097541;28;20593;-69
2021/06/16 00:06:00;;;;;;;4.40;4.00;;;16.00;99.90;;;;;;2097573;28;20183;-68
2021/06/16 00:07:01;;;;;;;6.38;3.80;;;16.00;99.90;;;;;;2088640;28;20427;-69
2021/06/16 00:08:02;;;;;;;4.03;3.60;;;16.00;99.90;;;;;;2088740;28;20204;-69
2021/06/16 00:09:05;;;;;;;4.43;4.03;;;15.90;99.90;;;;;;2088621;28;20298;-68
2021/06/16 00:10:07;;;;;;;4.45;3.92;;;15.90;99.90;;;;;;2089041;28;20418;-69
2021/06/16 00:11:08;;;;;;;4.75;3.72;;;16.00;99.90;;;;;;2088424;28;20861;-68
2021/06/16 00:12:10;;;;;;;4.03;3.70;;;15.90;99.90;;;;;;2080580;28;20181;-69
2021/06/16 00:13:10;;;;;;;7.28;3.90;;;16.00;99.90;;;;;;2080344;28;20683;-69
2021/06/16 00:14:11;;;;;;;5.03;4.20;;;15.90;99.90;;;;;;2080538;28;20177;-69
2021/06/16 00:15:17;;;;;;;7.30;3.97;;;15.90;99.90;;;;;;2088614;28;20176;-69
2021/06/16 00:16:18;;;;;;;5.03;3.97;;;15.90;99.90;;;;;;2088557;28;20163;-69
2021/06/16 00:17:19;;;;;;;5.28;3.80;;;15.80;99.90;;;;;;2088625;28;20172;-68
2021/06/16 00:18:20;;;;;;;5.05;3.78;;;15.80;99.90;;;;;;2097475;28;20706;-69
2021/06/16 00:19:21;;;;;;;4.37;3.70;;;15.80;99.90;;;;;;2097354;28;20221;-69
2021/06/16 00:20:23;;;;;;;4.50;3.90;;;15.80;99.90;;;;;;2097563;28;20176;-69
2021/06/16 00:21:24;;;;;;;5.20;4.05;;;15.80;99.90;;;;;;2088427;28;20190;-69
2021/06/16 00:22:25;;;;;;;6.13;3.80;;;15.80;99.90;;;;;;2088458;28;20185;-69
2021/06/16 00:23:25;;;;;;;6.03;3.93;;;15.80;99.90;;;;;;2088462;28;20173;-69
2021/06/16 00:24:27;;;;;;;6.00;4.00;;;15.80;99.90;;;;;;2088672;28;20226;-69
2021/06/16 00:25:28;;;;;;;6.63;3.75;;;15.80;99.90;;;;;;2097305;28;20268;-68
2021/06/16 00:26:29;;;;;;;4.57;3.90;;;15.70;99.90;;;;;;2097375;28;20620;-69
2021/06/16 00:27:29;;;;;;;4.53;4.07;;;15.70;99.90;;;;;;2097259;28;20415;-68
2021/06/16 00:28:30;;;;;;;4.13;3.70;;;15.70;99.90;;;;;;2097333;28;20546;-68
2021/06/16 00:29:31;;;;;;;5.80;3.60;;;15.70;99.90;;;;;;2088420;28;20190;-69
2021/06/16 00:30:32;;;;;;;4.43;3.70;;;15.60;99.90;;;;;;2096653;28;20171;-68
2021/06/16 00:31:32;;;;;;;5.13;3.67;;;15.60;99.90;;;;;;2096700;28;20249;-69
2021/06/16 00:32:33;;;;;;;3.87;3.57;;;15.60;99.90;;;;;;2096478;28;20184;-68
2021/06/16 00:33:34;;;;;;;6.07;3.95;;;15.60;99.90;;;;;;2088499;28;20180;-69
2021/06/16 00:34:35;;;;;;;4.47;3.70;;;15.60;99.90;;;;;;2088545;28;20206;-68
2021/06/16 00:35:35;;;;;;;4.33;3.90;;;15.60;99.90;;;;;;2097381;28;20203;-68
2021/06/16 00:36:36;;;;;;;4.80;3.87;;;15.60;99.90;;;;;;2088342;28;20238;-68
2021/06/16 00:37:37;;;;;;;4.27;3.87;;;15.60;99.90;;;;;;2088463;28;20827;-68
2021/06/16 00:38:38;;;;;;;4.17;3.73;;;15.60;99.90;;;;;;2088340;28;20172;-69
2021/06/16 00:39:38;;;;;;;4.23;3.80;;;15.60;99.90;;;;;;2088488;28;20567;-68
2021/06/16 00:40:39;;;;;;;4.97;3.70;;;15.50;99.90;;;;;;2096661;28;20179;-69
2021/06/16 00:41:41;;;;;;;4.77;3.87;;;15.50;99.90;;;;;;2097311;28;20179;-69
2021/06/16 00:42:42;;;;;;;4.82;3.70;;;15.50;99.90;;;;;;2096960;28;20175;-69
2021/06/16 00:43:43;;;;;;;3.72;3.42;;;15.50;99.90;;;;;;2097287;28;20179;-69
2021/06/16 00:44:43;;;;;;;4.77;3.93;;;15.50;99.90;;;;;;2097131;28;20179;-69
2021/06/16 00:45:44;;;;;;;4.43;3.70;;;15.50;99.90;;;;;;2097058;28;20272;-69
2021/06/16 00:46:45;;;;;;;4.10;3.43;;;15.50;99.90;;;;;;2096858;28;20683;-69
2021/06/16 00:47:47;;;;;;;4.30;3.57;;;15.50;99.90;;;;;;2088485;28;20176;-69
2021/06/16 00:48:47;;;;;;;5.82;3.80;;;15.50;99.90;;;;;;2088477;28;20184;-69
2021/06/16 00:49:49;;;;;;;4.10;3.70;;;15.50;99.90;;;;;;2096852;28;20189;-68
2021/06/16 00:50:50;;;;;;;4.25;3.72;;;15.40;99.90;;;;;;2097260;28;20258;-68
2021/06/16 00:51:50;;;;;;;4.70;3.87;;;15.40;99.90;;;;;;2088522;28;20307;-69
2021/06/16 00:52:52;;;;;;;4.07;3.57;;;15.40;99.90;;;;;;2088151;28;20222;-69
2021/06/16 00:53:52;;;;;;;4.15;3.75;;;15.40;99.90;;;;;;2097280;28;20678;-69
2021/06/16 00:54:53;;;;;;;6.13;3.60;;;15.40;99.90;;;;;;2088393;28;20196;-69
2021/06/16 00:55:54;;;;;;;4.33;3.63;;;15.40;99.90;;;;;;2088450;28;20186;-68
2021/06/16 00:56:54;;;;;;;5.37;3.57;;;15.40;99.90;;;;;;2086507;28;93264;-69
2021/06/16 00:57:57;;;;;;;3.87;3.57;;;15.30;99.90;;;;;;2088748;28;20271;-68
2021/06/16 00:58:57;;;;;;;6.80;3.67;;;15.30;99.90;;;;;;2087430;28;20900;-69
2021/06/16 01:00:20;;;;;;;4.53;3.70;;;15.40;99.90;;;;;;2088821;28;20183;-69
2021/06/16 01:01:24;;;;;;;3.92;3.50;;;15.30;99.90;;;;;;2097413;28;20191;-68
2021/06/16 01:02:26;;;;;;;4.75;3.85;;;15.30;99.90;;;;;;2097319;28;20224;-69
2021/06/16 01:03:47;;;;;;;6.03;4.13;;;15.30;99.90;;;;;;2088555;28;20180;-69
2021/06/16 01:04:49;;;;;;;6.22;3.97;;;15.30;99.90;;;;;;2091606;28;20679;-69
2021/06/16 01:05:59;;;;;;;3.92;3.42;;;15.30;99.90;;;;;;2088633;28;20180;-69
2021/06/16 01:07:09;;;;;;;5.50;4.07;;;15.30;99.90;;;;;;2081429;28;20196;-69
2021/06/16 01:08:18;;;;;;;4.13;3.72;;;15.30;99.90;;;;;;2081634;28;20157;-69
2021/06/16 01:09:33;;;;;;;4.03;3.63;;;15.20;99.90;;;;;;2096659;28;20170;-69
2021/06/16 01:10:40;;;;;;;6.65;4.13;;;15.20;99.90;;;;;;2097191;28;20357;-68
2021/06/16 01:12:20;;;;;;;4.75;3.55;;;15.20;99.90;;;;;;2080156;28;20209;-69
2021/06/16 01:13:40;;;;;;;4.47;4.03;;;15.20;99.90;;;;;;2091124;28;20184;-68
2021/06/16 01:15:01;;;;;;;5.15;3.70;;;15.10;99.90;;;;;;2088604;28;20758;-68
2021/06/16 01:16:18;;;;;;;4.13;3.72;;;15.10;99.90;;;;;;2091460;28;20200;-69
2021/06/16 01:17:29;;;;;;;3.92;3.40;;;15.10;99.90;;;;;;2097405;28;20622;-68
2021/06/16 01:18:34;;;;;;;4.07;3.72;;;15.00;99.90;;;;;;2088598;28;20172;-68
2021/06/16 01:20:07;;;;;;;5.88;3.78;;;15.00;99.90;;;;;;2089097;28;20153;-69
2021/06/16 01:21:08;;;;;;;4.10;3.50;;;15.10;99.90;;;;;;2088556;28;20165;-69
2021/06/16 01:22:59;;;;;;;4.10;3.70;;;15.20;99.90;;;;;;2088482;28;20176;-69
2021/06/16 01:24:06;;;;;;;3.95;3.30;;;15.20;99.90;;;;;;2097256;28;20176;-69
2021/06/16 01:25:12;;;;;;;5.35;3.60;;;15.10;99.90;;;;;;2088493;28;20173;-69
2021/06/16 01:26:33;;;;;;;5.80;3.92;;;15.10;99.90;;;;;;2089017;28;20175;-68
2021/06/16 01:27:36;;;;;;;6.22;3.72;;;15.10;99.90;;;;;;2099319;28;20183;-69
2021/06/16 01:28:43;;;;;;;5.47;3.67;;;15.00;99.90;;;;;;2096701;28;20197;-68
2021/06/16 01:29:45;;;;;;;4.32;3.92;;;15.00;99.90;;;;;;2096844;28;20175;-69
2021/06/16 01:30:47;;;;;;;4.82;3.72;;;15.00;99.90;;;;;;2096630;28;20191;-68
2021/06/16 01:31:50;;;;;;;5.15;3.92;;;14.90;99.90;;;;;;2088653;28;20180;-69
2021/06/16 01:32:52;;;;;;;4.93;3.55;;;14.90;99.90;;;;;;2088598;28;20180;-68
2021/06/16 01:33:53;;;;;;;4.65;3.80;;;14.90;99.90;;;;;;2088648;28;20183;-69
2021/06/16 01:34:53;;;;;;;5.43;3.73;;;15.00;99.90;;;;;;2088549;28;20222;-69
2021/06/16 01:35:55;;;;;;;4.43;3.60;;;14.90;99.90;;;;;;2097434;28;20171;-69
2021/06/16 01:36:58;;;;;;;5.88;3.95;;;14.90;99.90;;;;;;2097278;28;20202;-69
2021/06/16 01:38:00;;;;;;;4.97;4.20;;;14.90;99.90;;;;;;2088537;28;20176;-68
2021/06/16 01:39:06;;;;;;;4.45;3.90;;;14.90;99.90;;;;;;2080425;28;20208;-68
2021/06/16 01:40:10;;;;;;;4.75;3.72;;;14.90;99.90;;;;;;2089311;28;20165;-69
2021/06/16 01:41:13;;;;;;;4.93;3.70;;;14.90;99.90;;;;;;2097125;28;20171;-69
2021/06/16 01:42:18;;;;;;;4.72;3.30;;;14.90;99.90;;;;;;2088399;28;20184;-68
2021/06/16 01:43:20;;;;;;;4.20;3.80;;;14.90;99.90;;;;;;2080702;28;20173;-69
2021/06/16 01:44:22;;;;;;;5.13;3.40;;;14.90;99.90;;;;;;2080506;28;20192;-69
2021/06/16 01:45:23;;;;;;;7.00;3.85;;;14.90;99.90;;;;;;2080068;28;20254;-69
2021/06/16 01:46:26;;;;;;;5.05;3.65;;;14.80;99.90;;;;;;2080170;28;20762;-69
2021/06/16 01:47:28;;;;;;;5.07;4.38;;;14.80;99.90;;;;;;2080254;28;20184;-69
2021/06/16 01:48:31;;;;;;;6.43;3.40;;;14.80;99.90;;;;;;2088603;28;20274;-69
2021/06/16 01:49:33;;;;;;;8.68;4.13;;;14.80;99.90;;;;;;2088399;28;20188;-69
2021/06/16 01:50:35;;;;;;;4.63;3.80;;;14.80;99.90;;;;;;2080289;28;20177;-69
2021/06/16 01:51:36;;;;;;;4.78;3.58;;;14.80;99.90;;;;;;2080215;28;20211;-68
2021/06/16 01:52:38;;;;;;;4.83;3.80;;;14.80;99.90;;;;;;2088149;28;20211;-69
2021/06/16 01:53:40;;;;;;;4.47;4.00;;;14.80;99.90;;;;;;2088311;28;20177;-69
2021/06/16 01:54:41;;;;;;;7.13;3.70;;;14.80;99.90;;;;;;2080391;28;20180;-69
2021/06/16 01:55:42;;;;;;;5.03;4.23;;;14.80;99.90;;;;;;2080050;28;20180;-68
2021/06/16 01:56:46;;;;;;;4.20;3.80;;;14.80;99.90;;;;;;2088281;28;20216;-69
2021/06/16 01:57:51;;;;;;;6.47;4.00;;;14.70;99.90;;;;;;2097155;28;20641;-68
2021/06/16 01:58:53;;;;;;;5.05;3.85;;;14.70;99.90;;;;;;2081661;28;20184;-68
2021/06/16 01:59:59;;;;;;;6.47;4.07;;;14.70;99.90;;;;;;2082333;28;20173;-69
2021/06/16 02:01:01;;;;;;;4.75;3.95;;;14.70;99.90;;;;;;2090150;28;20168;-68
2021/06/16 02:02:02;;;;;;;7.18;4.07;;;14.70;99.90;;;;;;2081976;28;20203;-69
2021/06/16 02:03:04;;;;;;;4.97;3.83;;;14.70;99.90;;;;;;2089915;28;20259;-69
2021/06/16 02:04:05;;;;;;;5.07;4.00;;;14.60;99.90;;;;;;2089944;28;20243;-69
2021/06/16 02:05:08;;;;;;;6.25;3.75;;;14.70;99.90;;;;;;2081858;28;20261;-68
2021/06/16 02:06:09;;;;;;;4.85;4.00;;;14.70;99.90;;;;;;2090141;28;20168;-68
2021/06/16 02:07:21;;;;;;;6.07;3.92;;;14.60;99.90;;;;;;2090009;28;20229;-69
2021/06/16 02:08:26;;;;;;;4.07;3.60;;;14.70;99.90;;;;;;2083225;28;20161;-69
2021/06/16 02:09:27;;;;;;;4.18;3.55;;;14.70;99.90;;;;;;2090532;28;20228;-68
2021/06/16 02:10:33;;;;;;;5.95;3.78;;;14.70;99.90;;;;;;2090084;28;20173;-68
2021/06/16 02:11:42;;;;;;;4.63;3.85;;;14.70;99.90;;;;;;2090595;28;20218;-69
2021/06/16 02:12:46;;;;;;;4.97;3.75;;;14.70;99.90;;;;;;2098794;28;20221;-69
2021/06/16 02:13:55;;;;;;;4.15;3.70;;;14.70;99.90;;;;;;2098793;28;20244;-68
2021/06/16 02:15:02;;;;;;;5.85;3.50;;;14.70;99.90;;;;;;2090227;28;20639;-68
2021/06/16 02:16:09;;;;;;;4.75;3.67;;;14.70;99.90;;;;;;2083124;28;20599;-69
2021/06/16 02:17:16;;;;;;;5.45;3.85;;;14.60;99.90;;;;;;2090984;28;20628;-69
2021/06/16 02:18:22;;;;;;;5.25;3.55;;;14.70;99.90;;;;;;2089979;28;20271;-69
2021/06/16 02:19:28;;;;;;;4.65;3.80;;;14.60;99.90;;;;;;2090687;28;20165;-69
2021/06/16 02:20:29;;;;;;;5.18;4.03;;;14.70;99.90;;;;;;2098852;28;20206;-69
2021/06/16 02:21:31;;;;;;;4.10;3.70;;;14.60;99.90;;;;;;2089995;28;20655;-69
2021/06/16 02:22:32;;;;;;;5.32;3.85;;;14.60;99.90;;;;;;2081584;28;20196;-69
2021/06/16 02:23:33;;;;;;;4.72;3.63;;;14.60;99.90;;;;;;2090126;28;20821;-69
2021/06/16 02:24:36;;;;;;;4.07;3.67;;;14.60;99.90;;;;;;2089899;28;20172;-69
2021/06/16 02:25:37;;;;;;;4.63;3.63;;;14.50;99.90;;;;;;2082038;28;20185;-69
2021/06/16 02:26:39;;;;;;;5.25;3.70;;;14.60;99.90;;;;;;2081595;28;20212;-69
2021/06/16 02:27:40;;;;;;;3.90;3.45;;;14.50;99.90;;;;;;2090130;28;20169;-69
2021/06/16 02:28:42;;;;;;;4.35;3.80;;;14.50;99.90;;;;;;2098123;28;20654;-69
2021/06/16 02:29:43;;;;;;;6.22;3.63;;;14.50;99.90;;;;;;2089937;28;20187;-68
2021/06/16 02:30:45;;;;;;;3.60;3.30;;;14.50;99.90;;;;;;2081496;28;20630;-69
2021/06/16 02:31:46;;;;;;;5.05;3.72;;;14.50;99.90;;;;;;2081626;28;20209;-68
2021/06/16 02:32:47;;;;;;;5.65;3.80;;;14.50;99.90;;;;;;2089474;28;20189;-68
2021/06/16 02:33:52;;;;;;;5.73;3.80;;;14.50;99.90;;;;;;2089875;28;20257;-69
2021/06/16 02:34:52;;;;;;;5.18;3.80;;;14.50;99.90;;;;;;2082186;28;20268;-68
2021/06/16 02:35:53;;;;;;;4.83;3.93;;;14.40;99.90;;;;;;2080487;28;20210;-68
2021/06/16 02:36:58;;;;;;;6.83;4.00;;;14.40;99.90;;;;;;2072497;28;20205;-68
2021/06/16 02:38:18;;;;;;;4.05;3.65;;;14.40;99.90;;;;;;2082995;28;20192;-69
2021/06/16 02:40:02;;;;;;;4.65;4.10;;;14.40;99.90;;;;;;2080079;28;20176;-69
2021/06/16 02:41:07;;;;;;;4.47;3.70;;;14.40;99.90;;;;;;2092618;28;20198;-69
2021/06/16 02:42:09;;;;;;;5.38;3.65;;;14.40;99.90;;;;;;2098616;28;20264;-68
2021/06/16 02:43:10;;;;;;;8.25;4.10;;;14.40;99.90;;;;;;2089558;28;20179;-68
2021/06/16 02:44:13;;;;;;;4.40;4.00;;;14.40;99.90;;;;;;2089784;28;20749;-68
2021/06/16 02:45:17;;;;;;;5.53;4.00;;;14.30;99.90;;;;;;2089656;28;20606;-69
2021/06/16 02:46:18;;;;;;;5.03;4.50;;;14.30;99.90;;;;;;2090005;28;20276;-69
2021/06/16 02:47:20;;;;;;;6.00;4.00;;;14.30;99.90;;;;;;2089687;28;20251;-68
2021/06/16 02:48:23;;;;;;;5.50;4.00;;;14.30;99.90;;;;;;2081741;28;20578;-68
2021/06/16 02:49:32;;;;;;;6.35;4.18;;;14.30;99.90;;;;;;2089961;28;20307;-69
2021/06/16 02:50:35;;;;;;;6.55;4.13;;;14.30;99.90;;;;;;2089775;28;20175;-69
2021/06/16 02:51:39;;;;;;;4.43;4.00;;;14.30;99.90;;;;;;2090054;28;20200;-69
2021/06/16 02:52:42;;;;;;;4.63;4.20;;;14.30;99.90;;;;;;2089560;28;20268;-67
2021/06/16 02:53:44;;;;;;;4.35;3.70;;;14.30;99.90;;;;;;2082152;28;20777;-68
2021/06/16 02:54:52;;;;;;;5.32;3.88;;;14.30;99.90;;;;;;2089849;28;20180;-68
2021/06/16 02:56:01;;;;;;;5.43;3.70;;;14.30;99.90;;;;;;2098669;28;20156;-68
2021/06/16 02:57:04;;;;;;;4.78;4.18;;;14.20;99.90;;;;;;2089491;28;20186;-68
2021/06/16 02:58:06;;;;;;;6.25;3.95;;;14.30;99.90;;;;;;2089874;28;20183;-68
2021/06/16 02:59:10;;;;;;;5.32;3.83;;;14.20;99.90;;;;;;2089533;28;20176;-68
2021/06/16 03:00:15;;;;;;;5.38;4.00;;;14.20;99.90;;;;;;2081924;28;20169;-68
2021/06/16 03:01:19;;;;;;;4.40;3.88;;;14.20;99.90;;;;;;2082000;28;20173;-67
2021/06/16 03:02:28;;;;;;;5.88;4.32;;;14.20;99.90;;;;;;2081818;28;20181;-67
2021/06/16 03:03:30;;;;;;;4.82;3.80;;;14.20;99.90;;;;;;2082582;28;20203;-67
2021/06/16 03:04:31;;;;;;;4.45;3.80;;;14.20;99.90;;;;;;2089749;28;20306;-67
2021/06/16 03:05:32;;;;;;;4.47;3.80;;;14.20;99.90;;;;;;2097887;28;20292;-68
2021/06/16 03:06:34;;;;;;;4.00;3.60;;;14.20;99.90;;;;;;2097938;28;20697;-68
2021/06/16 03:07:36;;;;;;;5.32;3.83;;;14.20;99.90;;;;;;2097818;28;20183;-68
2021/06/16 03:08:39;;;;;;;5.00;4.10;;;14.20;99.90;;;;;;2089595;28;20180;-67
2021/06/16 03:09:41;;;;;;;5.28;4.25;;;14.10;99.90;;;;;;2089331;28;20172;-67
2021/06/16 03:10:42;;;;;;;4.30;3.90;;;14.10;99.90;;;;;;2089639;28;20188;-68
2021/06/16 03:11:45;;;;;;;4.10;3.72;;;14.10;99.90;;;;;;2089484;28;20204;-67
2021/06/16 03:12:53;;;;;;;4.18;3.78;;;14.10;99.90;;;;;;2089337;28;20184;-68
2021/06/16 03:13:54;;;;;;;6.03;4.75;;;14.20;99.90;;;;;;2090576;28;20161;-68
2021/06/16 03:14:58;;;;;;;4.22;3.80;;;14.20;99.90;;;;;;2089567;28;20180;-68
2021/06/16 03:16:00;;;;;;;4.22;3.65;;;14.20;99.90;;;;;;2081587;28;20177;-68
2021/06/16 03:17:01;;;;;;;4.10;3.70;;;14.20;99.90;;;;;;2089675;28;20212;-67
2021/06/16 03:18:03;;;;;;;4.57;4.18;;;14.20;99.90;;;;;;2089321;28;20179;-68
2021/06/16 03:19:05;;;;;;;6.85;4.03;;;14.20;99.90;;;;;;2081296;28;20239;-68
2021/06/16 03:20:07;;;;;;;5.15;4.13;;;14.20;99.90;;;;;;2081349;28;20251;-68
2021/06/16 03:21:09;;;;;;;5.57;4.18;;;14.20;99.90;;;;;;2081194;28;20187;-67
2021/06/16 03:22:11;;;;;;;4.35;3.80;;;14.20;99.90;;;;;;2081181;28;20826;-68
2021/06/16 03:23:14;;;;;;;5.13;3.88;;;14.20;99.90;;;;;;2089349;28;20239;-68
2021/06/16 03:24:18;;;;;;;6.57;4.13;;;14.20;99.90;;;;;;2088977;28;20172;-68
2021/06/16 03:25:20;;;;;;;4.85;3.90;;;14.20;99.90;;;;;;2081768;28;20699;-68
2021/06/16 03:26:23;;;;;;;4.72;4.18;;;14.20;99.90;;;;;;2089295;28;20200;-68
2021/06/16 03:27:25;;;;;;;4.13;3.72;;;14.10;99.90;;;;;;2089423;28;20211;-68
2021/06/16 03:28:28;;;;;;;4.88;4.25;;;14.10;99.90;;;;;;2089735;28;20732;-68
2021/06/16 03:29:29;;;;;;;4.82;4.32;;;14.10;99.90;;;;;;2097716;28;20198;-67
2021/06/16 03:30:31;;;;;;;4.82;4.28;;;14.10;99.90;;;;;;2089288;28;20188;-67
2021/06/16 03:31:33;;;;;;;5.70;4.15;;;14.10;99.90;;;;;;2089389;28;20222;-68
2021/06/16 03:32:36;;;;;;;5.60;4.40;;;14.00;99.90;;;;;;2089035;28;20187;-68
2021/06/16 03:33:38;;;;;;;4.43;3.88;;;14.00;99.90;;;;;;2089689;28;20223;-67
2021/06/16 03:34:39;;;;;;;5.03;3.92;;;14.00;99.90;;;;;;2089175;28;20180;-67
2021/06/16 03:35:40;;;;;;;4.80;4.23;;;14.00;99.90;;;;;;2089407;28;20666;-68
2021/06/16 03:36:43;;;;;;;5.67;4.10;;;14.00;99.90;;;;;;2097332;28;20196;-68
2021/06/16 03:37:44;;;;;;;5.30;4.22;;;14.00;99.90;;;;;;2089341;28;20256;-68
2021/06/16 03:38:46;;;;;;;6.88;4.20;;;14.00;99.90;;;;;;2081081;28;20173;-68
2021/06/16 03:39:51;;;;;;;5.22;4.43;;;14.00;99.90;;;;;;2081092;28;20590;-68
2021/06/16 03:40:54;;;;;;;4.40;4.00;;;14.00;99.90;;;;;;2097424;28;20182;-68
2021/06/16 03:41:55;;;;;;;5.47;4.30;;;14.00;99.90;;;;;;2097588;28;20204;-68
2021/06/16 03:43:00;;;;;;;5.35;4.20;;;14.00;99.90;;;;;;2088829;28;20607;-68
2021/06/16 03:44:02;;;;;;;4.78;4.20;;;13.90;99.90;;;;;;2089698;28;20177;-68
2021/06/16 03:45:09;;;;;;;4.95;4.35;;;14.00;99.90;;;;;;2089001;28;20623;-68
2021/06/16 03:46:10;;;;;;;4.43;4.00;;;14.00;99.90;;;;;;2081754;28;20664;-68
2021/06/16 03:47:13;;;;;;;5.50;4.57;;;13.90;99.90;;;;;;2089167;28;20173;-68
2021/06/16 03:48:19;;;;;;;4.55;4.15;;;14.00;99.90;;;;;;2089181;28;20172;-68
2021/06/16 03:49:21;;;;;;;6.13;4.40;;;14.00;99.90;;;;;;2089952;28;20203;-68
2021/06/16 03:50:22;;;;;;;4.97;4.05;;;14.00;99.90;;;;;;2089038;28;20683;-68
2021/06/16 03:51:27;;;;;;;4.70;4.22;;;14.00;99.90;;;;;;2089141;28;20299;-68
2021/06/16 03:52:29;;;;;;;6.47;4.72;;;13.90;99.90;;;;;;2097276;28;20202;-68
2021/06/16 03:53:31;;;;;;;5.00;4.47;;;14.00;99.90;;;;;;2097258;28;20176;-68
2021/06/16 03:54:32;;;;;;;4.45;4.05;;;14.00;99.90;;;;;;2097441;28;20210;-68
2021/06/16 03:55:33;;;;;;;7.47;4.40;;;14.00;99.90;;;;;;2088955;28;20177;-68
2021/06/16 03:56:34;;;;;;;5.50;4.30;;;14.00;99.90;;;;;;2089070;28;20283;-68
2021/06/16 03:57:35;;;;;;;5.80;4.20;;;14.00;99.90;;;;;;2097317;28;20179;-68
2021/06/16 03:58:36;;;;;;;4.75;4.20;;;14.00;99.90;;;;;;2089081;28;20176;-68
2021/06/16 03:59:38;;;;;;;5.95;4.03;;;14.10;99.90;;;;;;2089086;28;20211;-68
2021/06/16 04:00:40;;;;;;;4.60;4.03;;;14.10;99.90;;;;;;2089092;28;20169;-68
2021/06/16 04:01:42;;;;;;;6.32;4.15;;;14.10;99.90;;;;;;2089337;28;20180;-68
2021/06/16 04:02:47;;;;;;;6.35;4.53;;;14.10;99.90;;;;;;2088863;28;20210;-68
2021/06/16 04:03:48;;;;;;;5.30;4.18;;;14.20;99.90;;;;;;2089553;28;20184;-68
2021/06/16 04:04:50;;;;;;;5.43;4.20;;;14.10;99.90;;;;;;2089162;28;20551;-68
2021/06/16 04:05:51;;;;;;;5.55;4.60;;;14.20;99.90;;;;;;2089140;28;20184;-68
2021/06/16 04:06:53;;;;;;;5.07;4.57;;;14.20;99.90;;;;;;2088915;28;20284;-69
2021/06/16 04:07:54;;;;;;;6.25;4.55;;;14.20;99.90;;;;;;2089106;28;20180;-68
2021/06/16 04:08:55;;;;;;;6.75;4.45;;;14.30;99.90;;;;;;2089111;28;20227;-68
2021/06/16 04:09:57;;;;;;;5.05;4.50;;;14.30;99.90;;;;;;2089070;28;20691;-68
2021/06/16 04:10:58;;;;;;;5.60;4.70;;;14.30;99.90;;;;;;2088987;28;20191;-68
2021/06/16 04:11:58;;;;;;;5.20;4.37;;;14.40;99.90;;;;;;2088924;28;20184;-68
2021/06/16 04:13:01;;;;;;;4.93;4.47;;;14.40;99.90;;;;;;2088795;28;20769;-67
2021/06/16 04:14:02;;;;;;;5.25;4.20;;;14.40;99.90;;;;;;2080864;28;20169;-68
2021/06/16 04:15:04;;;;;;;4.73;4.20;;;14.40;99.90;;;;;;2089083;28;20206;-68
2021/06/16 04:16:05;;;;;;;4.53;4.13;;;14.40;99.90;;;;;;2097533;28;20183;-68
2021/06/16 04:17:07;;;;;;;4.85;4.35;;;14.40;99.90;;;;;;2088932;28;20596;-68
2021/06/16 04:18:08;;;;;;;5.57;4.80;;;14.50;99.90;;;;;;2088940;28;20184;-68
2021/06/16 04:19:10;;;;;;;5.32;4.28;;;14.50;99.90;;;;;;2097344;28;20237;-68
2021/06/16 04:20:12;;;;;;;5.38;4.68;;;14.50;99.90;;;;;;2088875;28;20164;-68
2021/06/16 04:21:13;;;;;;;4.97;4.45;;;14.50;99.90;;;;;;2088465;28;20181;-68
2021/06/16 04:22:15;;;;;;;6.20;5.60;;;14.50;99.90;;;;;;2097500;28;20178;-68
2021/06/16 04:23:16;;;;;;;5.65;4.50;;;14.60;99.90;;;;;;2097757;28;20171;-68
2021/06/16 04:24:16;;;;;;;7.37;4.40;;;14.60;99.90;;;;;;2097781;28;20250;-68
2021/06/16 04:25:17;;;;;;;4.70;4.03;;;14.60;99.90;;;;;;2097675;28;20184;-68
2021/06/16 04:26:21;;;;;;;5.13;4.23;;;14.60;99.90;;;;;;2097731;28;20179;-68
2021/06/16 04:27:22;;;;;;;6.50;4.15;;;14.60;99.90;;;;;;2097056;28;20222;-68
2021/06/16 04:28:23;;;;;;;4.77;4.30;;;14.60;99.90;;;;;;2097176;28;20205;-68
2021/06/16 04:29:24;;;;;;;6.80;4.47;;;14.70;99.90;;;;;;2088803;28;20186;-68
2021/06/16 04:30:25;;;;;;;5.83;4.43;;;14.70;99.90;;;;;;2088984;28;20267;-68
2021/06/16 04:31:26;;;;;;;4.60;4.20;;;14.70;99.90;;;;;;2097629;28;20230;-68
2021/06/16 04:32:27;;;;;;;5.53;4.53;;;14.70;99.90;;;;;;2097625;28;20274;-68
2021/06/16 04:33:27;;;;;;;6.07;4.40;;;14.80;99.90;;;;;;2088668;28;20226;-68
2021/06/16 04:34:29;;;;;;;6.20;4.60;;;14.80;99.90;;;;;;2088938;28;20222;-68
2021/06/16 04:35:30;;;;;;;5.05;4.47;;;14.80;99.90;;;;;;2097659;28;20176;-68
2021/06/16 04:36:31;;;;;;;4.87;4.37;;;14.80;99.90;;;;;;2092219;28;20341;-68
2021/06/16 04:37:31;;;;;;;7.37;4.77;;;14.80;99.90;;;;;;2089244;28;20600;-68
2021/06/16 04:38:34;;;;;;;6.07;4.50;;;14.90;99.90;;;;;;2089338;28;20635;-68
2021/06/16 04:39:34;;;;;;;5.00;4.40;;;14.90;99.90;;;;;;2080495;28;20894;-68
2021/06/16 04:40:35;;;;;;;5.60;4.50;;;14.90;99.90;;;;;;2080724;28;20180;-68
2021/06/16 04:41:37;;;;;;;30.05;12.65;;;14.90;99.90;;;;;;2088729;28;20275;-68
2021/06/16 04:42:37;;;;;;;17.35;7.43;;;14.90;99.90;;;;;;2089221;28;20234;-68
2021/06/16 04:43:38;;;;;;;17.50;8.33;;;14.90;99.90;;;;;;2089188;28;20180;-68
2021/06/16 04:44:39;;;;;;;16.37;8.93;;;14.90;99.90;;;;;;2080753;28;20191;-67
2021/06/16 04:45:39;;;;;;;6.70;4.97;;;14.90;99.90;;;;;;2080916;28;20276;-67
2021/06/16 04:46:40;;;;;;;7.87;5.30;;;15.00;99.90;;;;;;2089449;28;20223;-68
2021/06/16 04:47:41;;;;;;;6.10;4.70;;;15.00;99.90;;;;;;2089372;28;20695;-68
2021/06/16 04:48:42;;;;;;;6.40;4.40;;;15.00;99.90;;;;;;2080538;28;20209;-68
2021/06/16 04:49:44;;;;;;;7.72;4.60;;;14.90;99.90;;;;;;2080529;28;20562;-67
2021/06/16 04:50:46;;;;;;;5.55;4.30;;;15.00;99.90;;;;;;2089377;28;20200;-68
2021/06/16 04:51:46;;;;;;;7.78;5.05;;;15.00;99.90;;;;;;2089165;28;20202;-68
2021/06/16 04:52:47;;;;;;;7.33;4.83;;;15.00;99.90;;;;;;2089148;28;20270;-67
2021/06/16 04:53:48;;;;;;;7.57;5.23;;;15.00;99.90;;;;;;2089505;28;20211;-68
2021/06/16 04:54:48;;;;;;;6.17;4.70;;;15.00;99.90;;;;;;2089354;28;20258;-68
2021/06/16 04:55:49;;;;;;;5.30;4.30;;;15.00;99.90;;;;;;2089269;28;20176;-68
2021/06/16 04:56:50;;;;;;;7.27;4.50;;;15.10;99.90;;;;;;2080320;28;20579;-68
2021/06/16 04:57:50;;;;;;;8.77;5.67;;;15.10;99.90;;;;;;2080425;28;20187;-68
2021/06/16 04:58:51;;;;;;;7.77;5.17;;;15.10;99.90;;;;;;2089394;28;20196;-68
2021/06/16 04:59:52;;;;;;;6.67;4.20;;;15.20;99.90;;;;;;2080338;28;20177;-68
2021/06/16 05:00:53;;;;;;;6.17;4.40;;;15.20;99.90;;;;;;2080482;28;20169;-68
2021/06/16 05:01:53;;;;;;;6.70;4.60;;;15.20;99.90;;;;;;2089265;28;20635;-68
2021/06/16 05:02:56;;;;;;;7.77;4.53;;;15.20;99.90;;;;;;2080262;28;20209;-68
2021/06/16 05:03:57;;;;;;;6.88;4.07;;;15.20;99.90;;;;;;2080612;28;20204;-68
2021/06/16 05:04:58;;;;;;;4.78;4.30;;;15.20;99.90;;;;;;2080372;28;20291;-68
2021/06/16 05:05:59;;;;;;;6.20;4.60;;;15.20;99.90;;;;;;2080359;28;20211;-67
2021/06/16 05:07:00;;;;;;;4.93;4.40;;;15.30;99.90;;;;;;2089117;28;20203;-68
2021/06/16 05:08:00;;;;;;;6.10;4.40;;;15.30;99.90;;;;;;2080312;28;20268;-68
2021/06/16 05:09:02;;;;;;;5.50;4.40;;;15.40;99.90;;;;;;2080319;28;20595;-68
2021/06/16 05:10:05;;;;;;;4.85;4.40;;;15.30;99.90;;;;;;2089236;28;20643;-68
2021/06/16 05:11:05;;;;;;;6.82;4.40;;;15.40;99.90;;;;;;2088902;28;20180;-68
2021/06/16 05:12:07;;;;;;;5.90;4.67;;;15.40;99.90;;;;;;2089228;28;20241;-68
2021/06/16 05:13:08;;;;;;;4.75;4.15;;;15.50;99.90;;;;;;2088990;28;20267;-67
2021/06/16 05:14:08;;;;;;;6.80;4.63;;;15.50;99.90;;;;;;2089217;28;20219;-67
2021/06/16 05:15:15;;;;;;;5.40;4.30;;;15.50;99.90;;;;;;2089101;28;20169;-68
2021/06/16 05:16:16;;;;;;;6.13;4.50;;;15.50;99.90;;;;;;2080203;28;20648;-67
2021/06/16 05:17:17;;;;;;;4.80;4.33;;;15.50;99.90;;;;;;2080292;28;20177;-67
2021/06/16 05:18:18;;;;;;;5.28;3.92;;;15.50;99.90;;;;;;2089179;28;20208;-68
2021/06/16 05:19:22;;;;;;;5.10;4.57;;;15.50;99.90;;;;;;2080176;28;20185;-68
2021/06/16 05:20:25;;;;;;;4.82;4.30;;;15.50;99.90;;;;;;2080757;28;20169;-68
2021/06/16 05:21:26;;;;;;;7.13;4.40;;;15.60;99.90;;;;;;2088388;28;20216;-67
2021/06/16 05:22:28;;;;;;;5.55;4.28;;;15.60;99.90;;;;;;2088920;28;20292;-68
2021/06/16 05:23:30;;;;;;;4.95;4.03;;;15.60;99.90;;;;;;2088975;28;20176;-68
2021/06/16 05:24:30;;;;;;;5.43;4.43;;;15.60;99.90;;;;;;2072017;28;20186;-67
2021/06/16 05:25:31;;;;;;;6.97;4.70;;;15.60;99.90;;;;;;2072036;28;20276;-67
2021/06/16 05:26:32;;;;;;;8.63;4.77;;;15.60;99.90;;;;;;2088908;28;20200;-68
2021/06/16 05:27:34;;;;;;;7.90;4.73;;;15.60;99.90;;;;;;2088992;28;20278;-67
2021/06/16 05:28:35;;;;;;;4.93;4.43;;;15.70;99.90;;;;;;2080372;28;20188;-68